Detalii statie UNIVERSITATEA AGRICOLA IASI [0000198B]

Toti senzorii

Date Temperatura solului [C]Precipitatii [mm]Voltaj baterie [mV]HC Air temperature [C]HC Relative humidity [%]Punctul de roua [C]
medieminmaxsumaultimamedieminmaxmediemediemin
2017-10-20 09:00:00 10.9 10.9 11.1 0 7324 11.22 9.84 12.78 100 11.1 9.8
2017-10-20 10:00:00 11.2 11 11.4 0 7324 15.08 13.17 16.45 100 15 13.1
2017-10-20 11:00:00 11.6 11.3 11.9 0 7314 17.68 16.61 18.71 99.37 17.4 16.6
2017-10-20 12:00:00 12.1 11.8 12.3 0 7284 19.45 18.56 20.44 92.47 18 17.5
2017-10-20 13:00:00 12.6 12.4 12.8 0 7314 20.88 20.27 22.22 88.32 18.7 18.3
2017-10-20 14:00:00 12.9 12.8 13.2 0 7314 22.13 21.78 22.58 86.45 19.6 19.4
2017-10-20 15:00:00 13.2 13 13.4 0 7274 22.43 22.24 22.76 84.98 19.6 19.4
2017-10-20 16:00:00 13.2 13.2 13.4 0 7196 21.79 21.13 22.2 87.64 19.4 19.2
2017-10-20 17:00:00 13.2 13 13.3 0 7098 20.37 19.35 21.3 90.85 18.7 18.1
2017-10-20 18:00:00 12.8 12.7 13.1 0 7050 17.73 16.13 19.85 98.54 17.4 16.1
2017-10-20 19:00:00 12.6 12.4 12.8 0 7030 14.93 13.83 15.45 100 14.9 13.8
2017-10-20 20:00:00 12.4 12.3 12.5 0 6962 14.04 12.77 15.47 100 14 12.7
2017-10-20 21:00:00 12.1 12 12.3 0 6942 12.94 11.88 13.56 100 12.8 11.8
2017-10-20 22:00:00 11.9 11.8 12.2 0 6922 11.88 11.36 12.59 100 11.8 11.3
2017-10-20 23:00:00 11.7 11.6 11.9 0 6914 11.74 11.02 12.27 100 11.7 11
2017-10-21 00:00:00 11.6 11.5 11.8 0 6904 11.6 11.15 12.03 100 11.5 11.1
2017-10-21 01:00:00 11.4 11.2 11.6 0 6894 11.04 10.58 11.43 100 11 10.5
2017-10-21 02:00:00 11.3 11.3 11.4 0 6884 10.44 10.23 10.64 100 10.4 10.2
2017-10-21 03:00:00 11.2 11.1 11.4 0 6874 9.48 8.88 10.17 100 9.4 8.8
2017-10-21 04:00:00 11.3 11.2 11.4 0 6884 9.69 9.18 10.05 100 9.6 9.1
2017-10-21 05:00:00 11.4 11.4 11.5 0 6864 10.35 9.7 10.72 100 10.3 9.7
2017-10-21 06:00:00 11.5 11.5 11.8 0 6864 11.09 10.58 11.35 100 11 10.5
2017-10-21 07:00:00 11.7 11.6 11.8 0 6874 11.82 11.55 11.97 100 11.7 11.5
2017-10-21 08:00:00 11.7 11.6 12 0 6874 12 11.9 12.1 100 11.9 11.9
2017-10-21 09:00:00 11.9 11.7 12.2 0 6982 12.24 12.12 12.51 100 12.2 12.1
2017-10-21 10:00:00 12.3 12.2 12.5 0 7274 13.26 12.63 13.86 100 13.2 12.6
2017-10-21 11:00:00 12.7 12.5 12.9 0 7324 15.28 14.01 16.32 100 15.2 14
2017-10-21 12:00:00 12.9 12.8 13.1 0 7314 17.28 16.13 18.14 100 17.2 16.1
2017-10-21 13:00:00 13.1 13 13.3 0 7314 18.54 18.01 19.02 99.47 18.4 17.8
2017-10-21 14:00:00 13.2 13.1 13.4 0 7314 19.77 18.97 20.91 89.54 17.8 17.3
2017-10-21 15:00:00 13.4 13.3 13.6 0 7274 20.17 19.69 20.79 85 17.4 17.1
2017-10-21 16:00:00 13.4 13.4 13.6 0 7216 18.86 18.04 19.85 88.91 16.8 16.3
2017-10-21 17:00:00 13.4 13.3 13.6 0 7118 17.75 17.22 18.38 91.64 16.2 16.1
2017-10-21 18:00:00 13.2 13.1 13.4 0 7060 16.82 16.43 17.18 96.69 16.1 16
2017-10-21 19:00:00 13.1 13.1 13.2 0 7030 16.46 16.35 16.78 100 16.4 16.3
2017-10-21 20:00:00 13.1 13 13.2 0 6972 15.9 15.45 16.15 100 15.8 15.4
2017-10-21 21:00:00 13 13 13.2 0 6962 15.02 14.66 15.36 100 14.9 14.6
2017-10-21 22:00:00 12.8 12.6 13.1 2.2 6952 13.37 12.66 14.59 100 13.3 12.6
2017-10-21 23:00:00 12.3 12.2 12.6 3.6 6952 12.38 12.16 12.65 100 12.3 12.1
2017-10-22 00:00:00 12.1 12.1 12.3 1.4 6932 12.01 11.9 12.1 100 11.9 11.9
2017-10-22 01:00:00 12.2 12.1 12.3 0 6914 11.74 11.5 11.88 100 11.7 11.5
2017-10-22 02:00:00 12.2 12.2 12.3 0 6914 11.69 11.48 11.86 100 11.6 11.4
2017-10-22 03:00:00 12.3 12.2 12.4 0 6914 11.83 11.72 11.91 100 11.7 11.7
2017-10-22 04:00:00 12.2 12.2 12.3 0 6894 11.43 10.93 11.63 100 11.3 10.9
2017-10-22 05:00:00 12.1 11.9 12.2 0 6894 10.9 10.79 11.13 100 10.8 10.7
2017-10-22 06:00:00 12 11.9 12.1 0 6894 11.26 11.16 11.35 100 11.2 11.1
2017-10-22 07:00:00 11.9 11.9 12.1 0 6884 11.29 11.24 11.33 100 11.2 11.2